Map

Track Data

SID SEASON NUMBER BASIN SUBBASIN NAME ISO_TIME NATURE LAT LON WMO_WIND WMO_PRES WMO_AGENCY TRACK_TYPE DIST2LAND LANDFALL IFLAG USA_AGENCY USA_ATCF_ID USA_LAT USA_LON USA_RECORD USA_STATUS USA_WIND USA_PRES USA_SSHS USA_R34_NE USA_R34_SE USA_R34_SW USA_R34_NW USA_R50_NE USA_R50_SE USA_R50_SW USA_R50_NW USA_R64_NE USA_R64_SE USA_R64_SW USA_R64_NW USA_POCI USA_ROCI USA_RMW USA_EYE TOKYO_LAT TOKYO_LON TOKYO_GRADE TOKYO_WIND TOKYO_PRES TOKYO_R50_DIR TOKYO_R50_LONG TOKYO_R50_SHORT TOKYO_R30_DIR TOKYO_R30_LONG TOKYO_R30_SHORT TOKYO_LAND CMA_LAT CMA_LON CMA_CAT CMA_WIND CMA_PRES HKO_LAT HKO_LON HKO_CAT HKO_WIND HKO_PRES NEWDELHI_LAT NEWDELHI_LON NEWDELHI_GRADE NEWDELHI_WIND NEWDELHI_PRES NEWDELHI_CI NEWDELHI_DP NEWDELHI_POCI REUNION_LAT REUNION_LON REUNION_TYPE REUNION_WIND REUNION_PRES REUNION_TNUM REUNION_CI REUNION_RMW REUNION_R34_NE REUNION_R34_SE REUNION_R34_SW REUNION_R34_NW REUNION_R50_NE REUNION_R50_SE REUNION_R50_SW REUNION_R50_NW REUNION_R64_NE REUNION_R64_SE REUNION_R64_SW REUNION_R64_NW BOM_LAT BOM_LON BOM_TYPE BOM_WIND BOM_PRES BOM_TNUM BOM_CI BOM_RMW BOM_R34_NE BOM_R34_SE BOM_R34_SW BOM_R34_NW BOM_R50_NE BOM_R50_SE BOM_R50_SW BOM_R50_NW BOM_R64_NE BOM_R64_SE BOM_R64_SW BOM_R64_NW BOM_ROCI BOM_POCI BOM_EYE BOM_POS_METHOD BOM_PRES_METHOD NADI_LAT NADI_LON NADI_CAT NADI_WIND NADI_PRES WELLINGTON_LAT WELLINGTON_LON WELLINGTON_WIND WELLINGTON_PRES DS824_LAT DS824_LON DS824_STAGE DS824_WIND DS824_PRES TD9636_LAT TD9636_LON TD9636_STAGE TD9636_WIND TD9636_PRES TD9635_LAT TD9635_LON TD9635_WIND TD9635_PRES TD9635_ROCI NEUMANN_LAT NEUMANN_LON NEUMANN_CLASS NEUMANN_WIND NEUMANN_PRES MLC_LAT MLC_LON MLC_CLASS MLC_WIND MLC_PRES USA_GUST BOM_GUST BOM_GUST_PER REUNION_GUST REUNION_GUST_PER USA_SEAHGT USA_SEARAD_NE USA_SEARAD_SE USA_SEARAD_SW USA_SEARAD_NW STORM_SPEED STORM_DIR
1874236N29292 1874 13 NA NA NOT_NAMED 1874-08-23 12:00:00 TS 29.0000 -68.0000 main 1005 991 _____________O -1 29.0000 -68.0000 TD 30 4 319
1874236N29292 1874 13 NA NA NOT_NAMED 1874-08-23 15:00:00 TS 29.1626 -68.1623 main 991 977 _____________P -1 29.1626 -68.1623 TD 30 4 319
1874236N29292 1874 13 NA NA NOT_NAMED 1874-08-23 18:00:00 TS 29.3000 -68.3000 main 977 962 _____________O -1 29.3000 -68.3000 TD 30 3 319
1874236N29292 1874 13 NA NA NOT_NAMED 1874-08-23 21:00:00 TS 29.4000 -68.4001 main 962 947 _____________P -1 29.4000 -68.4001 TD 37 3 319
1874236N29292 1874 13 NA NA NOT_NAMED 1874-08-24 00:00:00 TS 29.5000 -68.5000 main 947 933 _____________O -1 29.5000 -68.5000 TS 45 3 319
1874236N29292 1874 13 NA NA NOT_NAMED 1874-08-24 03:00:00 TS 29.6500 -68.6499 main 925 903 _____________P -1 29.6500 -68.6499 TS 52 4 319
1874236N29292 1874 13 NA NA NOT_NAMED 1874-08-24 06:00:00 TS 29.8000 -68.8000 main 903 889 _____________O -1 29.8000 -68.8000 TS 60 3 320
1874236N29292 1874 13 NA NA NOT_NAMED 1874-08-24 09:00:00 TS 29.8999 -68.8927 main 889 874 _____________P -1 29.8999 -68.8927 TS 60 3 319
1874236N29292 1874 13 NA NA NOT_NAMED 1874-08-24 12:00:00 TS 30.0000 -69.0000 main 874 852 _____________O -1 30.0000 -69.0000 TS 60 4 314
1874236N29292 1874 13 NA NA NOT_NAMED 1874-08-24 15:00:00 TS 30.1425 -69.1850 main 852 823 _____________P -1 30.1425 -69.1850 TS 70 5 311
1874236N29292 1874 13 NA NA NOT_NAMED 1874-08-24 18:00:00 TS 30.3000 -69.4000 main 823 802 _____________O -1 30.3000 -69.4000 HU 80 5 311
1874236N29292 1874 13 NA NA NOT_NAMED 1874-08-24 21:00:00 TS 30.4500 -69.6001 main 802 773 _____________P -1 30.4500 -69.6001 HU 80 5 311
1874236N29292 1874 13 NA NA NOT_NAMED 1874-08-25 00:00:00 TS 30.6000 -69.8000 main 773 751 _____________O -1 30.6000 -69.8000 HU 80 5 310
1874236N29292 1874 13 NA NA NOT_NAMED 1874-08-25 03:00:00 TS 30.7500 -70.0075 main 744 722 _____________P -1 30.7500 -70.0075 HU 75 5 311
1874236N29292 1874 13 NA NA NOT_NAMED 1874-08-25 06:00:00 TS 30.9000 -70.2000 main 722 700 _____________O -1 30.9000 -70.2000 HU 70 4 319
1874236N29292 1874 13 NA NA NOT_NAMED 1874-08-25 09:00:00 TS 31.0723 -70.3350 main 700 678 _____________P -1 31.0723 -70.3350 HU 67 4 320
1874236N29292 1874 13 NA NA NOT_NAMED 1874-08-25 12:00:00 TS 31.2000 -70.5000 main 678 657 _____________O -1 31.2000 -70.5000 HU 65 4 292
1874236N29292 1874 13 NA NA NOT_NAMED 1874-08-25 15:00:00 TS 31.2226 -70.7776 main 657 635 _____________P -1 31.2226 -70.7776 HU 62 5 270
1874236N29292 1874 13 NA NA NOT_NAMED 1874-08-25 18:00:00 TS 31.2000 -71.1000 main 635 614 _____________O -1 31.2000 -71.1000 TS 60 5 268
1874236N29292 1874 13 NA NA NOT_NAMED 1874-08-25 21:00:00 TS 31.2074 -71.3999 main 614 593 _____________P -1 31.2074 -71.3999 TS 57 5 270
1874236N29292 1874 13 NA NA NOT_NAMED 1874-08-26 00:00:00 TS 31.2000 -71.7000 main 593 572 _____________O -1 31.2000 -71.7000 TS 55 5 265
1874236N29292 1874 13 NA NA NOT_NAMED 1874-08-26 03:00:00 TS 31.1575 -72.0076 main 572 560 _____________P -1 31.1575 -72.0076 TS 52 5 259
1874236N29292 1874 13 NA NA NOT_NAMED 1874-08-26 06:00:00 TS 31.1000 -72.3000 main 560 541 _____________O -1 31.1000 -72.3000 TS 50 5 257
1874236N29292 1874 13 NA NA NOT_NAMED 1874-08-26 09:00:00 TS 31.0499 -72.5650 main 549 537 _____________P -1 31.0499 -72.5650 TS 47 4 257
1874236N29292 1874 13 NA NA NOT_NAMED 1874-08-26 12:00:00 TS 31.0000 -72.8000 main 537 525 _____________O -1 31.0000 -72.8000 TS 45 4 255
1874236N29292 1874 13 NA NA NOT_NAMED 1874-08-26 15:00:00 TS 30.9500 -73.0150 main 534 523 _____________P -1 30.9500 -73.0150 TS 42 4 254
1874236N29292 1874 13 NA NA NOT_NAMED 1874-08-26 18:00:00 TS 30.9000 -73.2000 main 523 518 _____________O -1 30.9000 -73.2000 TS 40 3 251
1874236N29292 1874 13 NA NA NOT_NAMED 1874-08-26 21:00:00 TS 30.8500 -73.3575 main 522 517 _____________P -1 30.8500 -73.3575 TS 37 3 249
1874236N29292 1874 13 NA NA NOT_NAMED 1874-08-27 00:00:00 TS 30.8000 -73.5000 main 517 512 _____________O -1 30.8000 -73.5000 TS 35 3 248
1874236N29292 1874 13 NA NA NOT_NAMED 1874-08-27 03:00:00 TS 30.7500 -73.6500 main 521 512 _____________P -1 30.7500 -73.6500 TS 35 3 249
1874236N29292 1874 13 NA NA NOT_NAMED 1874-08-27 06:00:00 TS 30.7000 -73.8000 main 512 507 _____________O -1 30.7000 -73.8000 TS 35 3 248
1874236N29292 1874 13 NA NA NOT_NAMED 1874-08-27 09:00:00 TS 30.6500 -73.9425 main 517 509 _____________P -1 30.6500 -73.9425 TS 32 3 249
1874236N29292 1874 13 NA NA NOT_NAMED 1874-08-27 12:00:00 TS 30.6000 -74.1000 main 509 501 _____________O -1 30.6000 -74.1000 TD 30 3 252
1874236N29292 1874 13 NA NA NOT_NAMED 1874-08-27 15:00:00 TS 30.5500 -74.3000 main 501 501 _____________P -1 30.5500 -74.3000 TD 30 4 254
1874236N29292 1874 13 NA NA NOT_NAMED 1874-08-27 18:00:00 TS 30.5000 -74.5000 main 501 495 _____________O -1 30.5000 -74.5000 TD 30 3 252
1874236N29292 1874 13 NA NA NOT_NAMED 1874-08-27 21:00:00 TS 30.4500 -74.6575 main 498 492 _____________P -1 30.4500 -74.6575 TD 30 3 249
1874236N29292 1874 13 NA NA NOT_NAMED 1874-08-28 00:00:00 TS 30.4000 -74.8000 main 492 487 _____________O -1 30.4000 -74.8000 TD 30 3 248
1874236N29292 1874 13 NA NA NOT_NAMED 1874-08-28 03:00:00 TS 30.3500 -74.9500 main 496 485 _____________P -1 30.3500 -74.9500 TD 30 3 249
1874236N29292 1874 13 NA NA NOT_NAMED 1874-08-28 06:00:00 TS 30.3000 -75.1000 main 485 480 _____________O -1 30.3000 -75.1000 TD 30 3 245
1874236N29292 1874 13 NA NA NOT_NAMED 1874-08-28 09:00:00 TS 30.2275 -75.2576 main 484 479 _____________P -1 30.2275 -75.2576 TD 30 3 249
1874236N29292 1874 13 NA NA NOT_NAMED 1874-08-28 12:00:00 TS 30.2000 -75.4000 main 479 465 _____________O -1 30.2000 -75.4000 TD 30 2 283
1874236N29292 1874 13 NA NA NOT_NAMED 1874-08-28 15:00:00 TS 30.2775 -75.5149 main 465 450 _____________P -1 30.2775 -75.5149 TD 30 3 319
1874236N29292 1874 13 NA NA NOT_NAMED 1874-08-28 18:00:00 TS 30.4000 -75.6000 main 450 441 _____________O -1 30.4000 -75.6000 TD 30 2 330
1874236N29292 1874 13 NA NA NOT_NAMED 1874-08-28 21:00:00 TS 30.4850 -75.6501 main 436 426 _____________P -1 30.4850 -75.6501 TD 30 2 335
1874236N29292 1874 13 NA NA NOT_NAMED 1874-08-29 00:00:00 TS 30.6000 -75.7000 main 426 402 _____________O -1 30.6000 -75.7000 TD 30 3 337
1874236N29292 1874 13 NA NA NOT_NAMED 1874-08-29 03:00:00 TS 30.7925 -75.7999 main 402 378 _____________P -1 30.7925 -75.7999 TD 30 4 337
1874236N29292 1874 13 NA NA NOT_NAMED 1874-08-29 06:00:00 TS 31.0000 -75.9000 main 378 364 _____________O -1 31.0000 -75.9000 TD 30 4 331
1874236N29292 1874 13 NA NA NOT_NAMED 1874-08-29 09:00:00 TS 31.1423 -76.0321 main 364 345 _____________P -1 31.1423 -76.0321 TD 30 3 344
1874236N29292 1874 13 NA NA NOT_NAMED 1874-08-29 12:00:00 TS 31.3000 -76.0000 main 345 337 _____________O -1 31.3000 -76.0000 TD 30 5 42
1874236N29292 1874 13 NA NA NOT_NAMED 1874-08-29 15:00:00 TS 31.5353 -75.6254 main 349 340 _____________P -1 31.5353 -75.6254 TD 30 9 57
1874236N29292 1874 13 NA NA NOT_NAMED 1874-08-29 18:00:00 TS 31.8000 -75.1000 main 348 339 _____________O -1 31.8000 -75.1000 TD 30 10 58
1874236N29292 1874 13 NA NA NOT_NAMED 1874-08-29 21:00:00 TS 32.0573 -74.6499 main 339 334 _____________P -1 32.0573 -74.6499 TD 30 9 57
1874236N29292 1874 13 NA NA NOT_NAMED 1874-08-30 00:00:00 TS 32.3000 -74.2000 main 341 339 _____________O -1 32.3000 -74.2000 TD 30 9 59
1874236N29292 1874 13 NA NA NOT_NAMED 1874-08-30 03:00:00 TS 32.5149 -73.7423 main 356 355 _____________P -1 32.5149 -73.7423 TD 30 9 62
1874236N29292 1874 13 NA NA NOT_NAMED 1874-08-30 06:00:00 TS 32.7000 -73.3000 main 369 369 _____________O -1 32.7000 -73.3000 TD 30 8 64
1874236N29292 1874 13 NA NA NOT_NAMED 1874-08-30 09:00:00 TS 32.8577 -72.8902 main 384 384 _____________P -1 32.8577 -72.8902 TD 30 7 66
1874236N29292 1874 13 NA NA NOT_NAMED 1874-08-30 12:00:00 TS 33.0000 -72.5000 main 408 _____________O -1 33.0000 -72.5000 TD 30 7 66

About IBTrACS Database

This database is a web-friendly format of International Best Track Archive for Climate Stewardship (IBTrACS), a global best track data archive curated by NOAA dating back to 1842.

Updated: 2021-11-26